CZEM/ZEM METAR and TAF weather

Enter ICAO airport designator
Station Type Date Time Source
CZEM METAR 2022/12/05 15:00 UTC NOAA

CZEM 051500Z 22006KT 15SM SCT060 BKN075 M12/M14 A2951 RMK SC3AC3 SLP995


Station Type Date Time Source
CZEM Decoded METAR 2022/12/05 15:00 UTC NOAA

Eastmain River Airport, Canada (CZEM) 52-14N 078-31W
Dec 05, 2022 - 10:00 AM EST / 2022.12.05 1500 UTC
Wind: from the SW (220 degrees) at 7 MPH (6 KT):0
Visibility: 15 mile(s):0
Sky conditions: mostly cloudy
Temperature: 10 F (-12 C)
Windchill: 0 F (-18 C):1
Dew Point: 6 F (-14 C)
Relative Humidity: 85%
Pressure (altimeter): 29.51 in. Hg (999 hPa)
ob: CZEM 051500Z 22006KT 15SM SCT060 BKN075 M12/M14 A2951 RMK SC3AC3 SLP995
cycle: 15

Station Type Date Time Source
CZEM TAF UTC NOAA

Error!

Example: see airport list